sensor_id;sensor_type;location;lat;lon;timestamp;pressure;altitude;pressure_sealevel;temperature;humidity
62025;BME280;47978;49.118;12.146;2022-12-31T00:03:44;97422.00;;;7.84;98.66
62025;BME280;47978;49.118;12.146;2022-12-31T00:07:47;97415.63;;;7.89;99.11
62025;BME280;47978;49.118;12.146;2022-12-31T00:11:49;97413.34;;;7.96;98.98
62025;BME280;47978;49.118;12.146;2022-12-31T00:15:50;97409.25;;;7.94;99.11
62025;BME280;47978;49.118;12.146;2022-12-31T00:19:52;97406.94;;;8.06;98.92
62025;BME280;47978;49.118;12.146;2022-12-31T00:23:54;97416.88;;;8.02;98.86
62025;BME280;47978;49.118;12.146;2022-12-31T00:27:56;97414.47;;;7.95;99.30
62025;BME280;47978;49.118;12.146;2022-12-31T00:31:57;97420.75;;;8.01;99.35
62025;BME280;47978;49.118;12.146;2022-12-31T00:36:05;97419.81;;;8.10;98.71
62025;BME280;47978;49.118;12.146;2022-12-31T00:40:09;97424.97;;;8.17;98.20
62025;BME280;47978;49.118;12.146;2022-12-31T00:44:11;97434.34;;;8.16;98.27
62025;BME280;47978;49.118;12.146;2022-12-31T00:48:12;97433.56;;;8.10;98.30
62025;BME280;47978;49.118;12.146;2022-12-31T00:52:14;97439.84;;;8.16;98.12
62025;BME280;47978;49.118;12.146;2022-12-31T00:56:17;97440.34;;;8.23;97.69
62025;BME280;47978;49.118;12.146;2022-12-31T01:00:19;97448.06;;;8.21;97.74
62025;BME280;47978;49.118;12.146;2022-12-31T01:04:20;97445.31;;;8.21;97.93
62025;BME280;47978;49.118;12.146;2022-12-31T01:08:22;97437.53;;;8.28;97.84
62025;BME280;47978;49.118;12.146;2022-12-31T01:12:24;97437.41;;;8.15;97.93
62025;BME280;47978;49.118;12.146;2022-12-31T01:16:26;97451.41;;;8.18;98.13
62025;BME280;47978;49.118;12.146;2022-12-31T01:20:28;97454.66;;;8.25;97.52
62025;BME280;47978;49.118;12.146;2022-12-31T01:24:29;97455.09;;;8.08;98.50
62025;BME280;47978;49.118;12.146;2022-12-31T01:28:32;97467.38;;;8.16;98.22
62025;BME280;47978;49.118;12.146;2022-12-31T01:32:34;97473.63;;;8.27;97.89
62025;BME280;47978;49.118;12.146;2022-12-31T01:36:35;97475.59;;;8.21;98.14
62025;BME280;47978;49.118;12.146;2022-12-31T01:40:37;97490.38;;;8.30;97.70
62025;BME280;47978;49.118;12.146;2022-12-31T01:44:51;97486.03;;;8.24;97.95
62025;BME280;47978;49.118;12.146;2022-12-31T01:48:54;97477.16;;;8.32;97.64
62025;BME280;47978;49.118;12.146;2022-12-31T01:52:57;97481.53;;;8.33;97.56
62025;BME280;47978;49.118;12.146;2022-12-31T01:56:59;97481.66;;;8.23;97.56
62025;BME280;47978;49.118;12.146;2022-12-31T02:01:02;97479.00;;;8.13;97.84
62025;BME280;47978;49.118;12.146;2022-12-31T02:05:08;97475.97;;;8.15;97.77
62025;BME280;47978;49.118;12.146;2022-12-31T02:09:10;97481.16;;;8.16;97.73
62025;BME280;47978;49.118;12.146;2022-12-31T02:13:12;97485.66;;;8.07;98.40
62025;BME280;47978;49.118;12.146;2022-12-31T02:17:16;97484.72;;;8.17;98.20
62025;BME280;47978;49.118;12.146;2022-12-31T02:21:29;97489.88;;;8.28;97.51
62025;BME280;47978;49.118;12.146;2022-12-31T02:25:49;97492.94;;;8.22;97.67
62025;BME280;47978;49.118;12.146;2022-12-31T02:29:59;97507.03;;;8.20;97.80
62025;BME280;47978;49.118;12.146;2022-12-31T02:34:04;97507.22;;;8.29;97.84
62025;BME280;47978;49.118;12.146;2022-12-31T02:38:07;97502.16;;;8.36;97.66
62025;BME280;47978;49.118;12.146;2022-12-31T02:42:09;97492.84;;;8.32;97.84
62025;BME280;47978;49.118;12.146;2022-12-31T02:46:13;97502.47;;;8.40;97.71
62025;BME280;47978;49.118;12.146;2022-12-31T02:50:20;97506.84;;;8.41;97.90
62025;BME280;47978;49.118;12.146;2022-12-31T02:54:27;97506.84;;;8.41;97.80
62025;BME280;47978;49.118;12.146;2022-12-31T02:58:32;97518.63;;;8.46;97.69
62025;BME280;47978;49.118;12.146;2022-12-31T03:02:39;97514.47;;;8.49;97.56
62025;BME280;47978;49.118;12.146;2022-12-31T03:06:42;97516.25;;;8.40;98.08
62025;BME280;47978;49.118;12.146;2022-12-31T03:10:43;97520.03;;;8.44;97.81
62025;BME280;47978;49.118;12.146;2022-12-31T03:14:45;97525.91;;;8.32;98.14
62025;BME280;47978;49.118;12.146;2022-12-31T03:18:48;97522.94;;;8.28;98.36
62025;BME280;47978;49.118;12.146;2022-12-31T03:22:49;97519.25;;;8.38;97.85
62025;BME280;47978;49.118;12.146;2022-12-31T03:26:50;97519.53;;;8.37;97.82
62025;BME280;47978;49.118;12.146;2022-12-31T03:30:53;97538.75;;;8.47;97.96
62025;BME280;47978;49.118;12.146;2022-12-31T03:34:56;97540.88;;;8.55;97.47
62025;BME280;47978;49.118;12.146;2022-12-31T03:38:57;97548.31;;;8.54;97.94
62025;BME280;47978;49.118;12.146;2022-12-31T03:42:59;97554.06;;;8.58;98.03
62025;BME280;47978;49.118;12.146;2022-12-31T03:47:01;97552.31;;;8.67;97.88
62025;BME280;47978;49.118;12.146;2022-12-31T03:51:03;97554.59;;;8.84;97.48
62025;BME280;47978;49.118;12.146;2022-12-31T03:55:05;97555.31;;;8.95;97.42
62025;BME280;47978;49.118;12.146;2022-12-31T03:59:07;97538.13;;;9.03;97.24
62025;BME280;47978;49.118;12.146;2022-12-31T04:03:08;97553.41;;;9.14;96.29
62025;BME280;47978;49.118;12.146;2022-12-31T04:07:11;97553.28;;;9.24;95.59
62025;BME280;47978;49.118;12.146;2022-12-31T04:11:12;97541.31;;;9.10;95.73
62025;BME280;47978;49.118;12.146;2022-12-31T04:15:20;97550.72;;;9.09;95.22
62025;BME280;47978;49.118;12.146;2022-12-31T04:19:22;97548.56;;;9.06;95.55
62025;BME280;47978;49.118;12.146;2022-12-31T04:23:25;97545.47;;;9.08;95.68
62025;BME280;47978;49.118;12.146;2022-12-31T04:27:26;97548.91;;;8.99;95.37
62025;BME280;47978;49.118;12.146;2022-12-31T04:31:27;97572.09;;;8.98;95.75
62025;BME280;47978;49.118;12.146;2022-12-31T04:35:29;97563.53;;;9.00;95.58
62025;BME280;47978;49.118;12.146;2022-12-31T04:39:32;97568.78;;;8.96;95.91
62025;BME280;47978;49.118;12.146;2022-12-31T04:43:33;97566.97;;;8.87;95.70
62025;BME280;47978;49.118;12.146;2022-12-31T04:47:34;97575.47;;;8.90;95.42
62025;BME280;47978;49.118;12.146;2022-12-31T04:51:36;97585.06;;;8.98;95.83
62025;BME280;47978;49.118;12.146;2022-12-31T04:55:40;97593.97;;;9.14;95.64
62025;BME280;47978;49.118;12.146;2022-12-31T04:59:42;97589.13;;;9.06;95.35
62025;BME280;47978;49.118;12.146;2022-12-31T05:03:43;97589.44;;;9.23;95.21
62025;BME280;47978;49.118;12.146;2022-12-31T05:07:44;97579.16;;;9.29;95.59
62025;BME280;47978;49.118;12.146;2022-12-31T05:11:47;97595.75;;;9.48;94.94
62025;BME280;47978;49.118;12.146;2022-12-31T05:15:49;97601.59;;;9.65;94.19
62025;BME280;47978;49.118;12.146;2022-12-31T05:19:50;97599.94;;;9.64;94.35
62025;BME280;47978;49.118;12.146;2022-12-31T05:23:52;97580.31;;;9.84;93.08
62025;BME280;47978;49.118;12.146;2022-12-31T05:27:54;97582.25;;;9.84;93.37
62025;BME280;47978;49.118;12.146;2022-12-31T05:31:56;97580.03;;;9.86;93.19
62025;BME280;47978;49.118;12.146;2022-12-31T05:35:57;97592.09;;;10.09;92.62
62025;BME280;47978;49.118;12.146;2022-12-31T05:39:59;97598.56;;;10.18;91.40
62025;BME280;47978;49.118;12.146;2022-12-31T05:44:02;97596.34;;;10.20;91.47
62025;BME280;47978;49.118;12.146;2022-12-31T05:48:03;97596.25;;;10.25;90.57
62025;BME280;47978;49.118;12.146;2022-12-31T05:52:05;97600.09;;;10.10;91.16
62025;BME280;47978;49.118;12.146;2022-12-31T05:56:07;97590.97;;;10.10;91.18
62025;BME280;47978;49.118;12.146;2022-12-31T06:00:10;97606.31;;;10.02;91.01
62025;BME280;47978;49.118;12.146;2022-12-31T06:04:12;97599.34;;;10.05;91.13
62025;BME280;47978;49.118;12.146;2022-12-31T06:08:13;97608.59;;;10.14;90.82
62025;BME280;47978;49.118;12.146;2022-12-31T06:12:15;97621.06;;;10.11;91.13
62025;BME280;47978;49.118;12.146;2022-12-31T06:16:17;97613.53;;;10.17;91.34
62025;BME280;47978;49.118;12.146;2022-12-31T06:20:19;97621.59;;;10.13;91.22
62025;BME280;47978;49.118;12.146;2022-12-31T06:24:20;97608.28;;;10.16;90.95
62025;BME280;47978;49.118;12.146;2022-12-31T06:28:22;97607.25;;;10.11;90.89
62025;BME280;47978;49.118;12.146;2022-12-31T06:32:24;97618.97;;;10.03;91.11
62025;BME280;47978;49.118;12.146;2022-12-31T06:36:26;97619.59;;;10.00;91.13
62025;BME280;47978;49.118;12.146;2022-12-31T06:40:27;97618.44;;;10.01;91.74
62025;BME280;47978;49.118;12.146;2022-12-31T06:44:29;97618.44;;;10.20;91.09
62025;BME280;47978;49.118;12.146;2022-12-31T06:48:32;97614.44;;;10.31;90.73
62025;BME280;47978;49.118;12.146;2022-12-31T06:52:33;97625.53;;;10.45;89.93
62025;BME280;47978;49.118;12.146;2022-12-31T06:56:35;97626.34;;;10.46;90.09
62025;BME280;47978;49.118;12.146;2022-12-31T07:00:36;97620.81;;;10.46;89.53
62025;BME280;47978;49.118;12.146;2022-12-31T07:04:45;97634.19;;;10.57;88.93
62025;BME280;47978;49.118;12.146;2022-12-31T07:08:51;97642.06;;;10.50;89.03
62025;BME280;47978;49.118;12.146;2022-12-31T07:13:13;97635.53;;;10.41;89.35
62025;BME280;47978;49.118;12.146;2022-12-31T07:17:22;97655.34;;;10.48;89.02
62025;BME280;47978;49.118;12.146;2022-12-31T07:21:30;97636.72;;;10.54;88.98
62025;BME280;47978;49.118;12.146;2022-12-31T07:25:33;97645.03;;;10.54;89.19
62025;BME280;47978;49.118;12.146;2022-12-31T07:29:45;97652.69;;;10.76;88.59
62025;BME280;47978;49.118;12.146;2022-12-31T07:33:56;97658.22;;;10.76;89.41
62025;BME280;47978;49.118;12.146;2022-12-31T07:38:01;97670.13;;;10.90;88.95
62025;BME280;47978;49.118;12.146;2022-12-31T07:42:08;97667.97;;;10.87;89.05
62025;BME280;47978;49.118;12.146;2022-12-31T07:46:12;97675.44;;;10.87;89.21
62025;BME280;47978;49.118;12.146;2022-12-31T07:50:17;97676.00;;;11.02;87.89
62025;BME280;47978;49.118;12.146;2022-12-31T07:54:20;97681.00;;;11.00;88.47
62025;BME280;47978;49.118;12.146;2022-12-31T07:58:23;97691.91;;;11.11;87.43
62025;BME280;47978;49.118;12.146;2022-12-31T08:02:31;97686.97;;;11.08;87.58
62025;BME280;47978;49.118;12.146;2022-12-31T08:06:38;97692.78;;;11.06;88.01
62025;BME280;47978;49.118;12.146;2022-12-31T08:10:46;97682.38;;;11.17;87.39
62025;BME280;47978;49.118;12.146;2022-12-31T08:14:51;97696.28;;;11.12;87.76
62025;BME280;47978;49.118;12.146;2022-12-31T08:18:53;97696.69;;;11.05;88.00
62025;BME280;47978;49.118;12.146;2022-12-31T08:23:06;97692.72;;;11.11;88.06
62025;BME280;47978;49.118;12.146;2022-12-31T08:27:14;97707.06;;;11.13;87.75
62025;BME280;47978;49.118;12.146;2022-12-31T08:31:21;97693.97;;;11.19;87.23
62025;BME280;47978;49.118;12.146;2022-12-31T08:35:27;97691.09;;;11.52;85.39
62025;BME280;47978;49.118;12.146;2022-12-31T08:44:02;97714.41;;;11.64;84.87
62025;BME280;47978;49.118;12.146;2022-12-31T08:48:10;97727.13;;;11.79;83.99
62025;BME280;47978;49.118;12.146;2022-12-31T08:52:19;97713.06;;;11.89;83.75
62025;BME280;47978;49.118;12.146;2022-12-31T08:56:25;97719.41;;;12.04;82.70
62025;BME280;47978;49.118;12.146;2022-12-31T09:00:28;97722.69;;;12.20;81.90
62025;BME280;47978;49.118;12.146;2022-12-31T09:04:34;97708.38;;;12.26;81.73
62025;BME280;47978;49.118;12.146;2022-12-31T09:08:42;97718.75;;;12.34;81.40
62025;BME280;47978;49.118;12.146;2022-12-31T09:12:49;97716.91;;;12.44;81.17
62025;BME280;47978;49.118;12.146;2022-12-31T09:16:57;97718.72;;;12.48;80.60
62025;BME280;47978;49.118;12.146;2022-12-31T09:21:00;97720.31;;;12.63;79.90
62025;BME280;47978;49.118;12.146;2022-12-31T09:25:02;97726.81;;;12.58;79.92
62025;BME280;47978;49.118;12.146;2022-12-31T09:29:06;97740.47;;;12.55;80.60
62025;BME280;47978;49.118;12.146;2022-12-31T09:33:12;97736.94;;;12.63;79.35
62025;BME280;47978;49.118;12.146;2022-12-31T09:37:17;97727.38;;;12.69;79.53
62025;BME280;47978;49.118;12.146;2022-12-31T09:45:51;97723.66;;;12.74;79.38
62025;BME280;47978;49.118;12.146;2022-12-31T09:54:18;97730.19;;;13.23;77.62
62025;BME280;47978;49.118;12.146;2022-12-31T09:58:27;97740.00;;;13.52;76.76
62025;BME280;47978;49.118;12.146;2022-12-31T10:02:41;97743.50;;;13.66;75.07
62025;BME280;47978;49.118;12.146;2022-12-31T10:06:49;97750.56;;;13.63;75.65
62025;BME280;47978;49.118;12.146;2022-12-31T10:10:56;97752.09;;;13.78;75.42
62025;BME280;47978;49.118;12.146;2022-12-31T10:15:15;97758.66;;;13.91;75.50
62025;BME280;47978;49.118;12.146;2022-12-31T10:19:24;97750.66;;;13.89;75.57
62025;BME280;47978;49.118;12.146;2022-12-31T10:23:46;97749.59;;;14.16;72.87
62025;BME280;47978;49.118;12.146;2022-12-31T10:27:53;97748.66;;;14.30;72.30
62025;BME280;47978;49.118;12.146;2022-12-31T10:32:03;97751.59;;;14.42;72.09
62025;BME280;47978;49.118;12.146;2022-12-31T10:36:14;97750.31;;;14.48;72.70
62025;BME280;47978;49.118;12.146;2022-12-31T10:40:21;97759.69;;;14.52;73.05
62025;BME280;47978;49.118;12.146;2022-12-31T10:48:52;97766.22;;;14.56;73.52
62025;BME280;47978;49.118;12.146;2022-12-31T10:53:01;97757.19;;;14.51;72.57
62025;BME280;47978;49.118;12.146;2022-12-31T11:01:39;97754.88;;;14.44;72.46
62025;BME280;47978;49.118;12.146;2022-12-31T11:10:15;97741.19;;;14.56;73.41
62025;BME280;47978;49.118;12.146;2022-12-31T11:14:27;97728.72;;;14.62;72.31
62025;BME280;47978;49.118;12.146;2022-12-31T11:18:37;97724.97;;;14.58;73.36
62025;BME280;47978;49.118;12.146;2022-12-31T11:22:47;97730.88;;;14.74;71.81
62025;BME280;47978;49.118;12.146;2022-12-31T11:27:05;97734.63;;;14.87;71.59
62025;BME280;47978;49.118;12.146;2022-12-31T11:31:13;97726.28;;;14.96;70.90
62025;BME280;47978;49.118;12.146;2022-12-31T11:35:21;97726.13;;;14.92;70.32
62025;BME280;47978;49.118;12.146;2022-12-31T11:39:32;97730.88;;;14.92;70.69
62025;BME280;47978;49.118;12.146;2022-12-31T11:43:36;97729.22;;;14.82;70.95
62025;BME280;47978;49.118;12.146;2022-12-31T11:47:42;97717.13;;;14.69;71.69
62025;BME280;47978;49.118;12.146;2022-12-31T11:56:31;97722.19;;;14.58;71.35
62025;BME280;47978;49.118;12.146;2022-12-31T12:00:36;97710.69;;;14.51;71.60
62025;BME280;47978;49.118;12.146;2022-12-31T12:04:38;97708.94;;;14.55;71.96
62025;BME280;47978;49.118;12.146;2022-12-31T12:08:40;97692.09;;;14.60;70.85
62025;BME280;47978;49.118;12.146;2022-12-31T12:12:42;97697.47;;;14.57;71.66
62025;BME280;47978;49.118;12.146;2022-12-31T12:16:45;97706.47;;;14.62;72.06
62025;BME280;47978;49.118;12.146;2022-12-31T12:20:46;97705.81;;;14.66;71.46
62025;BME280;47978;49.118;12.146;2022-12-31T12:24:51;97707.31;;;14.72;70.53
62025;BME280;47978;49.118;12.146;2022-12-31T12:28:52;97698.78;;;14.68;70.98
62025;BME280;47978;49.118;12.146;2022-12-31T12:32:56;97692.06;;;14.78;70.36
62025;BME280;47978;49.118;12.146;2022-12-31T12:36:58;97697.31;;;14.71;70.89
62025;BME280;47978;49.118;12.146;2022-12-31T12:41:02;97702.41;;;14.69;70.98
62025;BME280;47978;49.118;12.146;2022-12-31T12:45:06;97697.94;;;14.50;72.58
62025;BME280;47978;49.118;12.146;2022-12-31T12:49:14;97695.16;;;14.42;72.37
62025;BME280;47978;49.118;12.146;2022-12-31T12:53:32;97693.88;;;14.56;71.18
62025;BME280;47978;49.118;12.146;2022-12-31T12:57:39;97688.63;;;14.46;71.30
62025;BME280;47978;49.118;12.146;2022-12-31T13:01:45;97697.78;;;14.47;72.90
62025;BME280;47978;49.118;12.146;2022-12-31T13:05:55;97705.75;;;14.22;73.54
62025;BME280;47978;49.118;12.146;2022-12-31T13:10:11;97700.69;;;14.24;73.15
62025;BME280;47978;49.118;12.146;2022-12-31T13:14:17;97700.84;;;14.19;74.56
62025;BME280;47978;49.118;12.146;2022-12-31T13:18:25;97693.97;;;14.16;73.84
62025;BME280;47978;49.118;12.146;2022-12-31T13:22:31;97697.72;;;14.12;74.49
62025;BME280;47978;49.118;12.146;2022-12-31T13:26:34;97695.78;;;14.21;73.76
62025;BME280;47978;49.118;12.146;2022-12-31T13:30:40;97695.25;;;14.10;75.23
62025;BME280;47978;49.118;12.146;2022-12-31T13:34:42;97689.19;;;14.00;75.00
62025;BME280;47978;49.118;12.146;2022-12-31T13:38:47;97690.84;;;14.01;73.71
62025;BME280;47978;49.118;12.146;2022-12-31T13:42:51;97687.56;;;13.99;75.00
62025;BME280;47978;49.118;12.146;2022-12-31T13:46:55;97692.28;;;13.89;75.43
62025;BME280;47978;49.118;12.146;2022-12-31T13:51:00;97691.28;;;13.85;75.87
62025;BME280;47978;49.118;12.146;2022-12-31T13:55:07;97690.44;;;13.76;75.69
62025;BME280;47978;49.118;12.146;2022-12-31T13:59:12;97687.63;;;13.67;76.17
62025;BME280;47978;49.118;12.146;2022-12-31T14:03:16;97690.91;;;13.69;76.31
62025;BME280;47978;49.118;12.146;2022-12-31T14:07:21;97692.38;;;13.67;76.25
62025;BME280;47978;49.118;12.146;2022-12-31T14:11:39;97685.00;;;13.62;75.87
62025;BME280;47978;49.118;12.146;2022-12-31T14:15:44;97697.69;;;13.55;77.54
62025;BME280;47978;49.118;12.146;2022-12-31T14:19:51;97693.47;;;13.26;80.30
62025;BME280;47978;49.118;12.146;2022-12-31T14:24:00;97684.22;;;13.08;81.03
62025;BME280;47978;49.118;12.146;2022-12-31T14:28:05;97691.06;;;12.79;81.79
62025;BME280;47978;49.118;12.146;2022-12-31T14:32:23;97685.31;;;12.53;84.76
62025;BME280;47978;49.118;12.146;2022-12-31T14:36:31;97687.34;;;12.25;86.07
62025;BME280;47978;49.118;12.146;2022-12-31T14:40:38;97684.53;;;12.39;84.89
62025;BME280;47978;49.118;12.146;2022-12-31T14:44:47;97690.88;;;12.03;87.33
62025;BME280;47978;49.118;12.146;2022-12-31T14:48:54;97699.72;;;11.78;88.06
62025;BME280;47978;49.118;12.146;2022-12-31T14:53:05;97701.47;;;11.60;88.64
62025;BME280;47978;49.118;12.146;2022-12-31T14:57:10;97706.09;;;11.64;87.40
62025;BME280;47978;49.118;12.146;2022-12-31T15:01:19;97709.97;;;11.77;86.07
62025;BME280;47978;49.118;12.146;2022-12-31T15:05:22;97703.81;;;11.66;85.92
62025;BME280;47978;49.118;12.146;2022-12-31T15:09:33;97705.56;;;11.62;85.75
62025;BME280;47978;49.118;12.146;2022-12-31T15:13:43;97713.06;;;11.62;85.04
62025;BME280;47978;49.118;12.146;2022-12-31T15:17:52;97717.06;;;11.83;84.05
62025;BME280;47978;49.118;12.146;2022-12-31T15:21:58;97721.47;;;11.84;83.72
62025;BME280;47978;49.118;12.146;2022-12-31T15:26:05;97722.63;;;11.97;83.29
62025;BME280;47978;49.118;12.146;2022-12-31T15:30:25;97714.09;;;12.07;82.44
62025;BME280;47978;49.118;12.146;2022-12-31T15:34:30;97708.88;;;11.92;82.97
62025;BME280;47978;49.118;12.146;2022-12-31T15:38:33;97711.84;;;11.96;82.73
62025;BME280;47978;49.118;12.146;2022-12-31T15:42:39;97721.06;;;11.77;83.95
62025;BME280;47978;49.118;12.146;2022-12-31T15:46:50;97721.78;;;11.69;83.67
62025;BME280;47978;49.118;12.146;2022-12-31T15:50:56;97718.19;;;11.55;84.49
62025;BME280;47978;49.118;12.146;2022-12-31T15:54:58;97723.19;;;11.25;85.78
62025;BME280;47978;49.118;12.146;2022-12-31T15:59:01;97724.44;;;11.00;86.62
62025;BME280;47978;49.118;12.146;2022-12-31T16:03:03;97729.38;;;10.70;87.68
62025;BME280;47978;49.118;12.146;2022-12-31T16:07:19;97724.16;;;10.69;87.86
62025;BME280;47978;49.118;12.146;2022-12-31T16:11:21;97726.25;;;10.58;88.65
62025;BME280;47978;49.118;12.146;2022-12-31T16:15:23;97728.94;;;10.63;88.60
62025;BME280;47978;49.118;12.146;2022-12-31T16:19:29;97732.38;;;10.74;88.28
62025;BME280;47978;49.118;12.146;2022-12-31T16:23:32;97727.00;;;10.96;86.76
62025;BME280;47978;49.118;12.146;2022-12-31T16:27:42;97742.06;;;10.90;87.42
62025;BME280;47978;49.118;12.146;2022-12-31T16:31:44;97737.41;;;11.18;86.03
62025;BME280;47978;49.118;12.146;2022-12-31T16:35:52;97746.16;;;11.25;85.56
62025;BME280;47978;49.118;12.146;2022-12-31T16:40:14;97743.53;;;11.15;85.90
62025;BME280;47978;49.118;12.146;2022-12-31T16:44:23;97752.78;;;11.11;85.44
62025;BME280;47978;49.118;12.146;2022-12-31T16:48:24;97745.09;;;11.08;85.71
62025;BME280;47978;49.118;12.146;2022-12-31T16:52:27;97754.25;;;11.22;84.79
62025;BME280;47978;49.118;12.146;2022-12-31T16:56:32;97754.41;;;11.12;84.98
62025;BME280;47978;49.118;12.146;2022-12-31T17:00:34;97748.59;;;11.13;84.85
62025;BME280;47978;49.118;12.146;2022-12-31T17:04:36;97742.66;;;11.20;84.09
62025;BME280;47978;49.118;12.146;2022-12-31T17:08:48;97749.94;;;11.30;83.82
62025;BME280;47978;49.118;12.146;2022-12-31T17:12:53;97730.25;;;11.31;83.29
62025;BME280;47978;49.118;12.146;2022-12-31T17:17:18;97733.94;;;11.13;84.41
62025;BME280;47978;49.118;12.146;2022-12-31T17:21:22;97732.38;;;11.20;83.76
62025;BME280;47978;49.118;12.146;2022-12-31T17:25:25;97738.97;;;11.24;83.35
62025;BME280;47978;49.118;12.146;2022-12-31T17:29:29;97743.78;;;11.19;83.00
62025;BME280;47978;49.118;12.146;2022-12-31T17:33:30;97743.66;;;11.24;82.84
62025;BME280;47978;49.118;12.146;2022-12-31T17:37:32;97732.91;;;11.22;82.99
62025;BME280;47978;49.118;12.146;2022-12-31T17:41:33;97735.09;;;11.39;81.87
62025;BME280;47978;49.118;12.146;2022-12-31T17:45:36;97737.66;;;11.36;81.58
62025;BME280;47978;49.118;12.146;2022-12-31T17:49:38;97738.72;;;11.54;80.61
62025;BME280;47978;49.118;12.146;2022-12-31T17:53:41;97743.81;;;11.46;80.76
62025;BME280;47978;49.118;12.146;2022-12-31T17:57:43;97741.88;;;11.47;80.76
62025;BME280;47978;49.118;12.146;2022-12-31T18:01:48;97743.00;;;11.60;79.71
62025;BME280;47978;49.118;12.146;2022-12-31T18:05:50;97751.31;;;11.60;79.77
62025;BME280;47978;49.118;12.146;2022-12-31T18:09:51;97749.25;;;11.52;79.03
62025;BME280;47978;49.118;12.146;2022-12-31T18:13:53;97749.25;;;11.52;79.66
62025;BME280;47978;49.118;12.146;2022-12-31T18:17:56;97753.38;;;11.54;79.30
62025;BME280;47978;49.118;12.146;2022-12-31T18:21:57;97752.84;;;11.52;79.87
62025;BME280;47978;49.118;12.146;2022-12-31T18:25:58;97757.56;;;11.52;79.71
62025;BME280;47978;49.118;12.146;2022-12-31T18:30:00;97752.03;;;11.52;79.16
62025;BME280;47978;49.118;12.146;2022-12-31T18:34:10;97755.63;;;11.52;79.43
62025;BME280;47978;49.118;12.146;2022-12-31T18:38:12;97767.00;;;11.51;78.95
62025;BME280;47978;49.118;12.146;2022-12-31T18:42:15;97769.88;;;11.45;79.46
62025;BME280;47978;49.118;12.146;2022-12-31T18:46:21;97774.16;;;11.38;79.90
62025;BME280;47978;49.118;12.146;2022-12-31T18:50:24;97765.72;;;11.29;79.55
62025;BME280;47978;49.118;12.146;2022-12-31T18:54:25;97772.81;;;11.21;80.43
62025;BME280;47978;49.118;12.146;2022-12-31T18:58:27;97766.53;;;11.30;79.84
62025;BME280;47978;49.118;12.146;2022-12-31T19:02:28;97782.25;;;11.34;79.58
62025;BME280;47978;49.118;12.146;2022-12-31T19:06:31;97784.50;;;11.32;79.33
62025;BME280;47978;49.118;12.146;2022-12-31T19:10:32;97789.13;;;11.37;79.41
62025;BME280;47978;49.118;12.146;2022-12-31T19:14:34;97790.28;;;11.36;78.68
62025;BME280;47978;49.118;12.146;2022-12-31T19:18:35;97799.41;;;11.36;78.73
62025;BME280;47978;49.118;12.146;2022-12-31T19:22:38;97801.22;;;11.27;79.33
62025;BME280;47978;49.118;12.146;2022-12-31T19:26:39;97801.06;;;11.18;79.92
62025;BME280;47978;49.118;12.146;2022-12-31T19:30:43;97802.31;;;10.93;81.52
62025;BME280;47978;49.118;12.146;2022-12-31T19:34:45;97805.69;;;10.71;82.42
62025;BME280;47978;49.118;12.146;2022-12-31T19:38:48;97810.41;;;10.52;83.02
62025;BME280;47978;49.118;12.146;2022-12-31T19:42:50;97811.31;;;10.47;82.76
62025;BME280;47978;49.118;12.146;2022-12-31T19:46:51;97804.50;;;10.40;83.48
62025;BME280;47978;49.118;12.146;2022-12-31T19:50:53;97815.06;;;10.32;83.70
62025;BME280;47978;49.118;12.146;2022-12-31T19:54:56;97819.47;;;10.09;84.69
62025;BME280;47978;49.118;12.146;2022-12-31T19:58:57;97826.06;;;9.89;85.09
62025;BME280;47978;49.118;12.146;2022-12-31T20:03:02;97828.69;;;9.76;85.14
62025;BME280;47978;49.118;12.146;2022-12-31T20:07:04;97831.09;;;9.58;86.02
62025;BME280;47978;49.118;12.146;2022-12-31T20:11:07;97826.41;;;9.30;86.82
62025;BME280;47978;49.118;12.146;2022-12-31T20:15:09;97857.69;;;9.15;86.94
62025;BME280;47978;49.118;12.146;2022-12-31T20:19:10;97859.22;;;8.97;87.42
62025;BME280;47978;49.118;12.146;2022-12-31T20:23:12;97858.72;;;8.85;87.49
62025;BME280;47978;49.118;12.146;2022-12-31T20:27:15;97854.50;;;8.58;90.04
62025;BME280;47978;49.118;12.146;2022-12-31T20:31:20;97862.22;;;8.56;89.86
62025;BME280;47978;49.118;12.146;2022-12-31T20:35:21;97871.94;;;8.33;90.36
62025;BME280;47978;49.118;12.146;2022-12-31T20:39:22;97860.69;;;8.24;90.81
62025;BME280;47978;49.118;12.146;2022-12-31T20:43:25;97870.97;;;8.08;91.71
62025;BME280;47978;49.118;12.146;2022-12-31T20:47:29;97867.41;;;8.03;91.74
62025;BME280;47978;49.118;12.146;2022-12-31T20:51:32;97877.88;;;7.96;92.15
62025;BME280;47978;49.118;12.146;2022-12-31T20:55:35;97869.63;;;7.91;92.59
62025;BME280;47978;49.118;12.146;2022-12-31T20:59:38;97862.78;;;7.83;92.41
62025;BME280;47978;49.118;12.146;2022-12-31T21:03:41;97879.81;;;7.85;92.53
62025;BME280;47978;49.118;12.146;2022-12-31T21:08:02;97886.69;;;7.82;92.12
62025;BME280;47978;49.118;12.146;2022-12-31T21:12:04;97880.69;;;7.65;92.50
62025;BME280;47978;49.118;12.146;2022-12-31T21:16:07;97877.94;;;7.65;94.95
62025;BME280;47978;49.118;12.146;2022-12-31T21:20:09;97872.41;;;7.65;95.43
62025;BME280;47978;49.118;12.146;2022-12-31T21:24:10;97873.53;;;7.74;96.23
62025;BME280;47978;49.118;12.146;2022-12-31T21:28:12;97869.09;;;7.88;95.84
62025;BME280;47978;49.118;12.146;2022-12-31T21:32:15;97855.59;;;7.82;96.73
62025;BME280;47978;49.118;12.146;2022-12-31T21:36:16;97860.22;;;8.07;95.25
62025;BME280;47978;49.118;12.146;2022-12-31T21:40:17;97863.53;;;7.94;95.86
62025;BME280;47978;49.118;12.146;2022-12-31T21:44:19;97867.91;;;8.05;95.25
62025;BME280;47978;49.118;12.146;2022-12-31T21:48:22;97872.81;;;8.23;94.82
62025;BME280;47978;49.118;12.146;2022-12-31T21:52:24;97866.44;;;8.33;93.95
62025;BME280;47978;49.118;12.146;2022-12-31T21:56:25;97868.94;;;8.29;93.54